SBPA/POA METAR and TAF weather

Enter ICAO airport designator
Station Type Date Time Source
SBPA METAR 2019/05/23 19:00 UTC NOAA

SBPA 231900Z 13005KT 3000 -RA BKN012 OVC025 18/17 Q1014


Station Type Date Time Source
SBPA Decoded METAR 2019/05/23 19:00 UTC NOAA

Porto Alegre Aero-Porto , Brazil (SBPA) 30-00S 051-11W 3M
May 23, 2019 - 03:00 PM EDT / 2019.05.23 1900 UTC
Wind: from the SE (130 degrees) at 6 MPH (5 KT):0
Visibility: 1 mile(s):0
Sky conditions: overcast
Weather: light rain
Temperature: 64 F (18 C)
Dew Point: 62 F (17 C)
Relative Humidity: 93%
Pressure (altimeter): 29.94 in. Hg (1014 hPa)
ob: SBPA 231900Z 13005KT 3000 -RA BKN012 OVC025 18/17 Q1014
cycle: 19

Station Type Date Time Source
SBPA TAF 2019/05/23 18:12 UTC NOAA

TAF SBPA 231530Z 2318/2418 33005KT 8000 BKN012 BKN030 TX20/2318Z TN13 /2409Z PROB40
TEMPO 2318/2322 8000 RA
BECMG 2400/2402 12008KT BKN006 BKN012
BECMG 2408/2410 14008KT 3000 RA
BECMG 2416/2418 19005KT 9999 SCT009 BKN015
RMK PCO

Example: see airport list